createdAt,value
2019-04-04T00:00:36.966Z,15.80
2019-04-04T00:02:43.702Z,14.53
2019-04-04T00:04:52.324Z,20.03
2019-04-04T00:06:58.899Z,17.83
2019-04-04T00:09:10.364Z,19.53
2019-04-04T00:11:17.067Z,20.20
2019-04-04T00:13:24.169Z,23.57
2019-04-04T00:15:31.282Z,25.83
2019-04-04T00:17:38.301Z,20.33
2019-04-04T00:19:45.155Z,20.50
2019-04-04T00:21:53.252Z,17.17
2019-04-04T00:24:00.049Z,18.10
2019-04-04T00:26:10.881Z,18.80
2019-04-04T00:28:17.781Z,22.50
2019-04-04T00:30:24.793Z,18.50
2019-04-04T00:32:31.610Z,19.93
2019-04-04T00:34:38.394Z,19.87
2019-04-04T00:36:44.846Z,19.53
2019-04-04T00:38:52.025Z,20.90
2019-04-04T00:40:58.565Z,18.53
2019-04-04T00:43:05.904Z,19.13
2019-04-04T00:45:14.677Z,20.93
2019-04-04T00:47:21.799Z,15.80
2019-04-04T00:49:28.679Z,21.23
2019-04-04T00:51:39.136Z,22.57
2019-04-04T00:53:45.939Z,20.03
2019-04-04T00:55:53.119Z,17.17
2019-04-04T00:58:00.269Z,17.47
2019-04-04T01:00:10.064Z,17.33
2019-04-04T01:02:18.640Z,20.73
2019-04-04T01:04:25.690Z,21.93
2019-04-04T01:06:33.747Z,25.47
2019-04-04T01:08:41.196Z,20.37
2019-04-04T01:10:49.789Z,18.07
2019-04-04T01:12:57.637Z,19.63
2019-04-04T01:15:04.790Z,23.07
2019-04-04T01:17:12.052Z,19.03
2019-04-04T01:19:18.857Z,17.23
2019-04-04T01:21:25.856Z,14.67
2019-04-04T01:23:32.626Z,19.63
2019-04-04T01:25:39.879Z,21.20
2019-04-04T01:27:49.133Z,19.27
2019-04-04T01:29:58.158Z,21.33
2019-04-04T01:32:04.774Z,16.93
2019-04-04T01:34:12.092Z,18.90
2019-04-04T01:36:19.284Z,19.57
2019-04-04T01:38:27.093Z,24.03
2019-04-04T01:40:36.225Z,21.87
2019-04-04T01:42:42.852Z,23.33
2019-04-04T01:44:50.798Z,20.10
2019-04-04T01:46:57.822Z,25.60
2019-04-04T01:49:05.908Z,24.90
2019-04-04T01:51:13.081Z,19.33
2019-04-04T01:53:22.732Z,23.60
2019-04-04T01:55:29.963Z,22.63
2019-04-04T01:57:38.624Z,24.67
2019-04-04T01:59:45.439Z,18.53
2019-04-04T02:01:52.336Z,21.87
2019-04-04T02:03:59.616Z,19.77
2019-04-04T02:06:06.597Z,18.20
2019-04-04T02:08:13.753Z,24.63
2019-04-04T02:10:20.437Z,30.00
2019-04-04T02:12:28.919Z,18.83
2019-04-04T02:14:37.168Z,24.00
2019-04-04T02:16:47.522Z,22.50
2019-04-04T02:18:53.830Z,20.80
2019-04-04T02:21:01.156Z,19.23
2019-04-04T02:23:08.181Z,22.73
2019-04-04T02:25:14.994Z,20.20
2019-04-04T02:27:21.955Z,20.63
2019-04-04T02:29:29.694Z,20.57
2019-04-04T02:31:37.782Z,22.93
2019-04-04T02:33:48.705Z,28.00
2019-04-04T02:35:55.203Z,15.37
2019-04-04T02:38:02.348Z,16.40
2019-04-04T02:40:30.143Z,19.97
2019-04-04T02:42:37.527Z,18.73
2019-04-04T02:44:47.398Z,18.70
2019-04-04T02:46:54.377Z,17.37
2019-04-04T02:49:01.151Z,17.07
2019-04-04T02:51:08.406Z,19.60
2019-04-04T02:53:19.409Z,23.97
2019-04-04T02:55:24.075Z,22.47
2019-04-04T02:57:31.064Z,18.97
2019-04-04T02:59:38.012Z,17.27
2019-04-04T03:01:45.843Z,16.13
2019-04-04T03:03:53.019Z,20.77
2019-04-04T03:06:00.531Z,19.73
2019-04-04T03:08:07.496Z,18.27
2019-04-04T03:10:16.329Z,16.93
2019-04-04T03:12:25.698Z,19.77
2019-04-04T03:14:36.114Z,25.43
2019-04-04T03:16:41.619Z,21.20
2019-04-04T03:18:48.813Z,18.73
2019-04-04T03:20:56.367Z,15.73
2019-04-04T03:23:03.163Z,16.47
2019-04-04T03:25:14.247Z,21.37
2019-04-04T03:27:18.553Z,14.40
2019-04-04T03:29:25.697Z,17.67
2019-04-04T03:31:37.354Z,18.67
2019-04-04T03:33:42.676Z,21.93
2019-04-04T03:35:49.157Z,17.70
2019-04-04T03:37:56.904Z,19.50
2019-04-04T03:40:03.505Z,20.13
2019-04-04T03:42:11.911Z,21.93
2019-04-04T03:44:20.629Z,21.07
2019-04-04T03:46:27.600Z,17.17
2019-04-04T03:48:34.492Z,18.40
2019-04-04T03:50:40.990Z,21.17
2019-04-04T03:52:47.758Z,20.77
2019-04-04T03:54:56.372Z,23.17
2019-04-04T03:57:03.332Z,20.93
2019-04-04T03:59:10.454Z,16.27
2019-04-04T04:01:17.145Z,21.67
2019-04-04T04:03:25.251Z,20.53
2019-04-04T04:05:35.720Z,17.10
2019-04-04T04:07:41.489Z,22.03
2019-04-04T04:09:49.912Z,18.23
2019-04-04T04:11:56.568Z,15.73
2019-04-04T04:14:04.008Z,18.03
2019-04-04T04:16:10.962Z,18.37
2019-04-04T04:18:21.353Z,20.67
2019-04-04T04:20:26.453Z,21.87
2019-04-04T04:22:34.344Z,19.37
2019-04-04T04:24:42.054Z,18.83
2019-04-04T04:26:50.052Z,22.97
2019-04-04T04:28:56.874Z,15.07
2019-04-04T04:31:03.249Z,19.63
2019-04-04T04:33:10.836Z,21.60
2019-04-04T04:35:18.229Z,21.43
2019-04-04T04:37:25.027Z,21.03
2019-04-04T04:39:35.902Z,19.23
2019-04-04T04:41:39.902Z,20.27
2019-04-04T04:43:47.308Z,20.80
2019-04-04T04:45:54.870Z,16.80
2019-04-04T04:48:01.846Z,18.60
2019-04-04T04:50:09.854Z,17.53
2019-04-04T04:52:18.891Z,16.60
2019-04-04T04:54:26.172Z,15.50
2019-04-04T04:56:33.568Z,22.30
2019-04-04T04:58:42.148Z,17.70
2019-04-04T05:00:48.791Z,17.10
2019-04-04T05:02:55.661Z,20.50
2019-04-04T05:05:02.860Z,19.77
2019-04-04T05:07:10.099Z,18.87
2019-04-04T05:09:18.799Z,17.60
2019-04-04T05:11:29.350Z,20.67
2019-04-04T05:13:36.407Z,21.57
2019-04-04T05:15:43.368Z,22.27
2019-04-04T05:17:50.611Z,15.50
2019-04-04T05:19:57.656Z,17.27
2019-04-04T05:22:05.136Z,25.17
2019-04-04T05:24:12.310Z,18.13
2019-04-04T05:26:19.139Z,22.03
2019-04-04T05:28:26.319Z,20.20
2019-04-04T05:30:33.079Z,19.90
2019-04-04T05:32:39.696Z,19.63
2019-04-04T05:34:48.156Z,18.07
2019-04-04T05:36:58.461Z,20.37
2019-04-04T05:39:08.818Z,27.37
2019-04-04T05:41:16.622Z,19.27
2019-04-04T05:43:23.343Z,25.63
2019-04-04T05:45:31.328Z,22.97
2019-04-04T05:47:38.411Z,17.43
2019-04-04T05:49:44.887Z,18.80
2019-04-04T05:51:51.804Z,23.07
2019-04-04T05:53:58.642Z,23.07
2019-04-04T05:56:06.509Z,22.67
2019-04-04T05:58:13.413Z,22.17
2019-04-04T06:00:20.405Z,20.40
2019-04-04T06:02:27.213Z,20.40
2019-04-04T06:04:34.203Z,17.43
2019-04-04T06:06:41.220Z,18.37
2019-04-04T06:08:48.157Z,17.07
2019-04-04T06:10:54.804Z,22.10
2019-04-04T06:13:01.614Z,24.37
2019-04-04T06:15:09.458Z,20.57
2019-04-04T06:17:17.875Z,23.70
2019-04-04T06:19:24.592Z,20.43
2019-04-04T06:21:31.548Z,16.13
2019-04-04T06:23:38.220Z,16.40
2019-04-04T06:25:46.329Z,19.63
2019-04-04T06:27:53.268Z,18.50
2019-04-04T06:30:00.285Z,23.20
2019-04-04T06:32:07.502Z,19.77
2019-04-04T06:34:15.209Z,20.17
2019-04-04T06:36:22.263Z,21.93
2019-04-04T06:38:29.214Z,18.43
2019-04-04T06:40:35.987Z,16.47
2019-04-04T06:42:43.397Z,25.63
2019-04-04T06:44:50.083Z,22.77
2019-04-04T06:46:57.053Z,15.47
2019-04-04T06:49:04.395Z,17.67
2019-04-04T06:51:14.285Z,19.57
2019-04-04T06:53:22.291Z,18.80
2019-04-04T06:55:29.618Z,20.40
2019-04-04T06:57:37.337Z,16.00
2019-04-04T06:59:44.629Z,18.47
2019-04-04T07:01:53.311Z,19.90
2019-04-04T07:04:00.307Z,20.30
2019-04-04T07:06:08.086Z,21.70
2019-04-04T07:08:16.250Z,22.17
2019-04-04T07:10:23.196Z,18.77
2019-04-04T07:12:29.829Z,20.93
2019-04-04T07:14:45.513Z,19.83
2019-04-04T07:16:45.180Z,19.47
2019-04-04T07:18:52.072Z,22.50
2019-04-04T07:20:59.056Z,24.73
2019-04-04T07:23:06.084Z,19.17
2019-04-04T07:25:13.168Z,21.63
2019-04-04T07:27:20.493Z,19.00
2019-04-04T07:29:27.278Z,18.20
2019-04-04T07:31:38.298Z,23.97
2019-04-04T07:33:44.042Z,22.47
2019-04-04T07:35:51.543Z,20.83
2019-04-04T07:37:59.297Z,24.20
2019-04-04T07:40:08.322Z,20.40
2019-04-04T07:42:15.875Z,99.03
2019-04-04T07:44:23.873Z,39.57
2019-04-04T07:46:31.015Z,114.43
2019-04-04T07:48:37.897Z,99.23
2019-04-04T07:50:44.747Z,56.70
2019-04-04T07:52:52.505Z,69.47
2019-04-04T07:54:59.335Z,226.03
2019-04-04T07:57:08.399Z,465.37
2019-04-04T07:59:15.366Z,96.07
2019-04-04T08:01:22.064Z,44.47
2019-04-04T08:03:29.265Z,27.57
2019-04-04T08:05:36.157Z,24.00
2019-04-04T08:07:44.544Z,21.77
2019-04-04T08:09:53.167Z,22.67
2019-04-04T08:11:59.682Z,22.47
2019-04-04T08:14:06.795Z,20.87
2019-04-04T08:16:14.902Z,22.63
2019-04-04T08:18:21.625Z,27.60
2019-04-04T08:20:28.701Z,23.47
2019-04-04T08:22:35.468Z,18.63
2019-04-04T08:24:44.196Z,18.57
2019-04-04T08:26:50.866Z,21.43
2019-04-04T08:28:59.475Z,22.10
2019-04-04T08:31:06.565Z,19.57
2019-04-04T08:33:13.325Z,28.27
2019-04-04T08:35:20.384Z,23.50
2019-04-04T08:37:28.025Z,28.30
2019-04-04T08:39:36.101Z,21.07
2019-04-04T08:41:43.496Z,33.27
2019-04-04T08:43:50.072Z,27.20
2019-04-04T08:45:56.728Z,24.33
2019-04-04T08:48:03.609Z,21.17
2019-04-04T08:50:12.465Z,29.03
2019-04-04T08:52:20.758Z,34.13
2019-04-04T08:54:28.029Z,24.27
2019-04-04T08:58:51.544Z,24.67
2019-04-04T09:00:57.769Z,29.23
2019-04-04T09:03:04.829Z,24.57
2019-04-04T09:05:12.777Z,24.23
2019-04-04T09:07:21.482Z,32.50
2019-04-04T09:09:28.417Z,24.90
2019-04-04T09:11:38.913Z,27.73
2019-04-04T09:13:45.631Z,23.00
2019-04-04T09:15:52.679Z,29.77
2019-04-04T09:18:00.804Z,23.23
2019-04-04T09:20:11.691Z,25.23
2019-04-04T09:22:18.493Z,27.43
2019-04-04T09:24:25.286Z,23.83
2019-04-04T09:26:32.203Z,26.13
2019-04-04T09:28:40.375Z,24.33
2019-04-04T09:30:53.378Z,22.20
2019-04-04T09:33:01.683Z,23.03
2019-04-04T09:35:10.427Z,23.80
2019-04-04T09:37:17.145Z,22.80
2019-04-04T09:39:24.560Z,22.47
2019-04-04T09:41:31.717Z,26.73
2019-04-04T09:43:38.998Z,22.40
2019-04-04T09:45:45.932Z,24.03
2019-04-04T09:47:56.572Z,25.40
2019-04-04T09:50:03.727Z,24.07
2019-04-04T09:52:13.191Z,23.77
2019-04-04T09:54:19.884Z,25.23
2019-04-04T09:56:27.128Z,19.47
2019-04-04T09:58:33.757Z,26.07
2019-04-04T10:00:41.250Z,27.90
2019-04-04T10:02:48.202Z,26.27
2019-04-04T10:04:55.191Z,22.43
2019-04-04T10:07:02.272Z,23.67
2019-04-04T10:09:15.535Z,23.30
2019-04-04T10:11:18.434Z,21.40
2019-04-04T10:13:25.423Z,19.77
2019-04-04T10:15:32.159Z,24.20
2019-04-04T10:17:39.934Z,25.33
2019-04-04T10:19:46.380Z,25.07
2019-04-04T10:21:54.339Z,27.07
2019-04-04T10:24:01.626Z,39.00
2019-04-04T10:26:08.536Z,35.33
2019-04-04T10:28:15.371Z,25.17
2019-04-04T10:30:22.240Z,19.57
2019-04-04T10:32:29.016Z,22.20
2019-04-04T10:34:36.402Z,18.93
2019-04-04T10:36:44.615Z,22.40
2019-04-04T10:38:51.981Z,22.70
2019-04-04T10:41:00.002Z,20.17
2019-04-04T10:43:10.048Z,29.17
2019-04-04T10:45:18.273Z,26.00
2019-04-04T10:47:25.393Z,31.80
2019-04-04T10:49:32.507Z,23.40
2019-04-04T10:51:39.794Z,20.70
2019-04-04T10:53:46.791Z,24.10
2019-04-04T10:55:55.096Z,19.53
2019-04-04T10:58:02.759Z,20.50
2019-04-04T11:00:12.801Z,24.43
2019-04-04T11:02:19.981Z,24.73
2019-04-04T11:04:27.441Z,24.67
2019-04-04T11:06:34.902Z,24.27
2019-04-04T11:08:43.202Z,19.17
2019-04-04T11:10:50.355Z,24.30
2019-04-04T11:12:57.457Z,23.07
2019-04-04T11:15:05.462Z,21.60
2019-04-04T11:17:13.571Z,24.97
2019-04-04T11:19:30.609Z,20.03
2019-04-04T11:21:28.738Z,20.57
2019-04-04T11:23:58.515Z,22.97
2019-04-04T11:26:07.081Z,23.70
2019-04-04T11:28:13.910Z,16.43
2019-04-04T11:30:21.086Z,29.07
2019-04-04T11:32:29.722Z,17.90
2019-04-04T11:34:36.928Z,28.30
2019-04-04T11:36:45.281Z,23.17
2019-04-04T11:38:53.941Z,19.83
2019-04-04T11:41:00.613Z,22.00
2019-04-04T11:43:08.731Z,21.97
2019-04-04T11:45:17.029Z,16.27
2019-04-04T11:47:26.271Z,20.47
2019-04-04T11:49:33.417Z,20.13
2019-04-04T11:51:40.460Z,21.30
2019-04-04T11:53:48.371Z,24.27
2019-04-04T11:55:54.980Z,21.67
2019-04-04T11:58:03.601Z,20.50
2019-04-04T12:00:12.343Z,19.43
2019-04-04T12:02:19.194Z,18.97
2019-04-04T12:04:27.180Z,28.37
2019-04-04T12:06:34.151Z,21.80
2019-04-04T12:08:41.200Z,17.50
2019-04-04T12:10:49.816Z,22.00
2019-04-04T12:12:58.586Z,22.10
2019-04-04T12:15:08.871Z,20.97
2019-04-04T12:17:16.221Z,23.53
2019-04-04T12:19:24.463Z,21.40
2019-04-04T12:21:32.292Z,20.50
2019-04-04T12:23:39.625Z,28.57
2019-04-04T12:25:46.500Z,21.87
2019-04-04T12:27:55.815Z,24.27
2019-04-04T12:30:02.386Z,25.47
2019-04-04T12:32:09.348Z,23.60
2019-04-04T12:34:16.000Z,22.73
2019-04-04T12:36:24.774Z,25.00
2019-04-04T12:38:32.564Z,20.73
2019-04-04T12:40:39.527Z,24.13
2019-04-04T12:42:46.611Z,21.97
2019-04-04T12:44:53.164Z,27.23
2019-04-04T12:47:00.111Z,26.07
2019-04-04T12:49:07.271Z,20.77
2019-04-04T12:51:14.235Z,19.67
2019-04-04T12:53:21.820Z,21.23
2019-04-04T12:55:28.540Z,33.90
2019-04-04T12:57:36.101Z,18.33
2019-04-04T12:59:43.871Z,24.87
2019-04-04T13:01:51.080Z,24.77
2019-04-04T13:03:59.110Z,23.63
2019-04-04T13:06:06.290Z,25.17
2019-04-04T13:08:14.132Z,19.90
2019-04-04T13:10:32.526Z,23.37
2019-04-04T13:12:30.737Z,23.23
2019-04-04T13:14:37.709Z,24.17
2019-04-04T13:16:45.744Z,26.33
2019-04-04T13:18:52.467Z,21.73
2019-04-04T13:20:59.930Z,18.13
2019-04-04T13:23:06.949Z,21.67
2019-04-04T13:25:14.445Z,23.23
2019-04-04T13:27:21.465Z,25.43
2019-04-04T13:29:28.241Z,17.17
2019-04-04T13:31:35.379Z,18.77
2019-04-04T13:33:43.110Z,25.50
2019-04-04T13:35:50.320Z,18.13
2019-04-04T13:37:58.869Z,23.90
2019-04-04T13:40:08.242Z,21.40
2019-04-04T13:42:15.611Z,21.27
2019-04-04T13:44:25.236Z,21.87
2019-04-04T13:46:32.562Z,21.30
2019-04-04T13:48:43.196Z,19.00
2019-04-04T13:50:48.972Z,19.13
2019-04-04T13:52:57.849Z,21.90
2019-04-04T13:55:06.349Z,23.00
2019-04-04T13:59:27.775Z,19.73
2019-04-04T14:01:34.919Z,21.97
2019-04-04T14:03:42.150Z,22.60
2019-04-04T14:05:50.157Z,25.17
2019-04-04T14:08:00.255Z,20.00
2019-04-04T14:10:08.690Z,21.40
2019-04-04T14:12:15.434Z,25.57
2019-04-04T14:14:22.435Z,19.50
2019-04-04T14:16:29.490Z,19.00
2019-04-04T14:18:39.697Z,26.80
2019-04-04T14:21:20.278Z,23.00
2019-04-04T14:23:33.119Z,19.27
2019-04-04T14:25:42.161Z,18.97
2019-04-04T14:27:49.309Z,22.20
2019-04-04T14:29:56.607Z,26.63
2019-04-04T14:32:04.803Z,23.80
2019-04-04T14:34:12.324Z,20.33
2019-04-04T14:36:21.056Z,24.80
2019-04-04T14:38:28.309Z,31.27
2019-04-04T14:40:35.348Z,26.93
2019-04-04T14:42:42.319Z,24.67
2019-04-04T14:44:49.333Z,26.20
2019-04-04T14:46:56.262Z,21.57
2019-04-04T14:49:03.710Z,24.93
2019-04-04T14:51:10.517Z,22.70
2019-04-04T14:53:17.637Z,20.37
2019-04-04T14:55:24.547Z,25.47
2019-04-04T14:57:31.823Z,24.23
2019-04-04T14:59:39.062Z,22.90
2019-04-04T15:01:46.341Z,19.67
2019-04-04T15:03:53.193Z,24.97
2019-04-04T15:06:00.195Z,22.63
2019-04-04T15:08:08.470Z,25.63
2019-04-04T15:10:15.984Z,27.50
2019-04-04T15:12:23.497Z,23.90
2019-04-04T15:14:31.072Z,28.20
2019-04-04T15:16:38.263Z,21.53
2019-04-04T15:18:46.250Z,21.93
2019-04-04T15:20:56.951Z,20.93
2019-04-04T15:23:03.999Z,22.30
2019-04-04T15:25:11.370Z,20.10
2019-04-04T15:27:18.229Z,26.23
2019-04-04T15:29:26.000Z,27.13
2019-04-04T15:31:33.213Z,23.53
2019-04-04T15:33:40.592Z,24.00
2019-04-04T15:35:47.477Z,29.37
2019-04-04T15:37:55.067Z,22.07
2019-04-04T15:40:04.450Z,25.40
2019-04-04T15:42:14.909Z,23.03
2019-04-04T15:44:21.827Z,29.33
2019-04-04T15:46:29.456Z,22.07
2019-04-04T15:48:36.874Z,19.73
2019-04-04T15:50:44.278Z,24.00
2019-04-04T15:52:51.388Z,22.37
2019-04-04T15:54:58.495Z,23.83
2019-04-04T15:57:06.808Z,24.27
2019-04-04T15:59:15.477Z,27.37
2019-04-04T16:01:23.032Z,25.50
2019-04-04T16:03:29.965Z,28.23
2019-04-04T16:05:38.820Z,29.90
2019-04-04T16:07:47.834Z,23.17
2019-04-04T16:09:54.885Z,22.53
2019-04-04T16:12:02.352Z,21.90
2019-04-04T16:14:09.448Z,24.00
2019-04-04T16:16:16.757Z,21.00
2019-04-04T16:18:23.919Z,30.80
2019-04-04T16:20:31.321Z,22.90
2019-04-04T16:22:38.345Z,24.10
2019-04-04T16:24:45.676Z,20.93
2019-04-04T16:26:53.975Z,21.73
2019-04-04T16:29:00.932Z,24.60
2019-04-04T16:31:08.901Z,37.20
2019-04-04T16:33:15.943Z,30.40
2019-04-04T16:35:22.564Z,23.63
2019-04-04T16:37:32.171Z,25.40
2019-04-04T16:39:41.585Z,25.50
2019-04-04T16:42:01.186Z,33.13
2019-04-04T16:44:12.322Z,25.20
2019-04-04T16:46:24.454Z,25.00
2019-04-04T16:48:33.952Z,26.03
2019-04-04T16:50:48.409Z,28.57
2019-04-04T16:53:01.467Z,29.87
2019-04-04T16:55:10.099Z,40.93
2019-04-04T16:57:17.350Z,43.73
2019-04-04T16:59:24.835Z,27.63
2019-04-04T17:01:32.807Z,24.43
2019-04-04T17:03:40.106Z,26.83
2019-04-04T17:05:47.486Z,27.33
2019-04-04T17:07:59.320Z,25.20
2019-04-04T17:10:08.764Z,31.93
2019-04-04T17:12:16.446Z,29.37
2019-04-04T17:14:23.987Z,26.30
2019-04-04T17:16:32.460Z,28.27
2019-04-04T17:18:39.487Z,27.33
2019-04-04T17:20:46.890Z,28.57
2019-04-04T17:22:54.451Z,34.40
2019-04-04T17:25:03.199Z,23.10
2019-04-04T17:27:10.817Z,24.97
2019-04-04T17:29:19.490Z,29.83
2019-04-04T17:31:27.263Z,35.30
2019-04-04T17:33:35.699Z,29.87
2019-04-04T17:35:43.130Z,33.90
2019-04-04T17:37:50.764Z,24.83
2019-04-04T17:39:58.464Z,89.90
2019-04-04T17:42:06.295Z,128.27
2019-04-04T17:44:13.808Z,395.07
2019-04-04T17:46:22.200Z,186.33
2019-04-04T17:48:31.627Z,177.47
2019-04-04T17:50:38.950Z,694.13
2019-04-04T17:52:46.899Z,350.43
2019-04-04T17:54:54.649Z,277.47
2019-04-04T17:57:01.882Z,286.77
2019-04-04T17:59:10.801Z,307.80
2019-04-04T18:01:17.861Z,258.60
2019-04-04T18:03:26.293Z,332.67
2019-04-04T18:05:34.174Z,268.33
2019-04-04T18:07:41.343Z,205.90
2019-04-04T18:09:50.366Z,98.53
2019-04-04T18:11:59.530Z,110.27
2019-04-04T18:14:07.234Z,93.37
2019-04-04T18:16:16.522Z,152.90
2019-04-04T18:18:25.435Z,44.80
2019-04-04T18:20:34.853Z,54.40
2019-04-04T18:22:44.076Z,36.70
2019-04-04T18:24:52.157Z,31.37
2019-04-04T18:26:59.797Z,30.07
2019-04-04T18:29:07.078Z,27.63
2019-04-04T18:31:14.511Z,42.37
2019-04-04T18:33:21.995Z,27.47
2019-04-04T18:35:29.462Z,31.13
2019-04-04T18:37:38.138Z,24.97
2019-04-04T18:39:45.438Z,24.33
2019-04-04T18:41:53.178Z,25.27
2019-04-04T18:44:02.803Z,27.17
2019-04-04T18:46:12.885Z,27.43
2019-04-04T18:48:20.544Z,27.73
2019-04-04T18:50:27.777Z,32.97
2019-04-04T18:52:35.321Z,23.87
2019-04-04T18:54:42.798Z,24.57
2019-04-04T18:56:50.104Z,27.17
2019-04-04T18:58:57.445Z,28.73
2019-04-04T19:01:05.028Z,27.87
2019-04-04T19:03:12.537Z,26.90
2019-04-04T19:05:19.939Z,28.20
2019-04-04T19:07:38.846Z,22.60
2019-04-04T19:09:37.267Z,29.10
2019-04-04T19:11:45.018Z,27.13
2019-04-04T19:13:52.688Z,19.67
2019-04-04T19:16:00.161Z,28.70
2019-04-04T19:18:07.428Z,25.87
2019-04-04T19:20:15.529Z,24.60
2019-04-04T19:22:23.068Z,20.37
2019-04-04T19:24:30.387Z,24.07
2019-04-04T19:26:37.866Z,24.87
2019-04-04T19:28:44.938Z,23.03
2019-04-04T19:30:52.388Z,22.77
2019-04-04T19:32:59.646Z,22.60
2019-04-04T19:35:09.704Z,21.77
2019-04-04T19:37:16.984Z,19.90
2019-04-04T19:39:24.152Z,27.37
2019-04-04T19:41:32.911Z,19.93
2019-04-04T19:43:40.169Z,24.40
2019-04-04T19:45:47.406Z,113.67
2019-04-04T19:47:54.463Z,26.40
2019-04-04T19:50:01.672Z,30.40
2019-04-04T19:52:10.298Z,24.23
2019-04-04T19:54:19.502Z,25.20
2019-04-04T19:56:30.737Z,29.60
2019-04-04T19:58:40.242Z,22.83
2019-04-04T20:00:49.071Z,25.23
2019-04-04T20:02:57.419Z,30.13
2019-04-04T20:05:04.827Z,27.27
2019-04-04T20:07:12.426Z,25.00
2019-04-04T20:09:21.369Z,26.50
2019-04-04T20:11:28.496Z,26.00
2019-04-04T20:13:36.058Z,21.20
2019-04-04T20:15:43.246Z,24.40
2019-04-04T20:17:50.880Z,20.03
2019-04-04T20:19:58.608Z,28.07
2019-04-04T20:22:06.495Z,25.33
2019-04-04T20:24:14.199Z,22.80
2019-04-04T20:26:23.792Z,25.10
2019-04-04T20:28:32.621Z,22.70
2019-04-04T20:30:41.423Z,30.47
2019-04-04T20:32:48.460Z,22.47
2019-04-04T20:34:56.572Z,24.83
2019-04-04T20:37:04.127Z,26.60
2019-04-04T20:39:12.812Z,24.13
2019-04-04T20:41:20.565Z,24.53
2019-04-04T20:43:27.734Z,22.30
2019-04-04T20:45:37.286Z,21.27
2019-04-04T20:47:44.374Z,23.53
2019-04-04T20:49:51.844Z,25.93
2019-04-04T20:51:59.296Z,27.83
2019-04-04T20:54:07.622Z,24.87
2019-04-04T20:56:15.774Z,26.53
2019-04-04T20:58:23.499Z,26.93
2019-04-04T21:00:31.850Z,23.40
2019-04-04T21:02:39.529Z,25.67
2019-04-04T21:04:46.548Z,28.00
2019-04-04T21:06:54.242Z,23.00
2019-04-04T21:09:02.045Z,29.63
2019-04-04T21:11:10.635Z,29.60
2019-04-04T21:13:17.438Z,21.03
2019-04-04T21:15:24.738Z,23.37
2019-04-04T21:17:32.842Z,25.63
2019-04-04T21:19:39.795Z,23.60
2019-04-04T21:21:47.225Z,21.57
2019-04-04T21:23:53.890Z,23.77
2019-04-04T21:26:07.816Z,28.13
2019-04-04T21:28:19.051Z,21.37
2019-04-04T21:30:26.239Z,25.23
2019-04-04T21:32:33.962Z,28.77
2019-04-04T21:34:41.254Z,21.47
2019-04-04T21:36:48.537Z,23.87
2019-04-04T21:38:55.573Z,25.73
2019-04-04T21:41:02.345Z,25.47
2019-04-04T21:43:11.424Z,23.30
2019-04-04T21:45:18.995Z,24.07
2019-04-04T21:47:26.012Z,27.17
2019-04-04T21:49:33.121Z,28.37
2019-04-04T21:51:39.743Z,23.03
2019-04-04T21:53:47.235Z,24.73
2019-04-04T21:55:58.460Z,35.30
2019-04-04T21:58:07.158Z,25.97
2019-04-04T22:00:15.315Z,26.67
2019-04-04T22:02:23.706Z,24.27
2019-04-04T22:04:30.742Z,27.33
2019-04-04T22:06:37.577Z,26.27
2019-04-04T22:08:50.054Z,27.37
2019-04-04T22:10:57.244Z,20.23
2019-04-04T22:13:04.331Z,27.50
2019-04-04T22:15:11.719Z,27.40
2019-04-04T22:17:19.893Z,24.47
2019-04-04T22:19:26.490Z,25.53
2019-04-04T22:21:33.688Z,30.73
2019-04-04T22:23:42.616Z,24.30
2019-04-04T22:25:49.677Z,26.97
2019-04-04T22:27:56.636Z,25.80
2019-04-04T22:30:04.465Z,21.73
2019-04-04T22:32:11.474Z,27.27
2019-04-04T22:34:18.632Z,26.13
2019-04-04T22:36:25.243Z,28.53
2019-04-04T22:38:32.123Z,22.83
2019-04-04T22:40:39.078Z,27.67
2019-04-04T22:42:45.916Z,26.17
2019-04-04T22:44:53.669Z,27.10
2019-04-04T22:47:02.116Z,24.70
2019-04-04T22:49:08.880Z,24.23
2019-04-04T22:51:15.855Z,26.57
2019-04-04T22:53:22.956Z,27.40
2019-04-04T22:55:30.241Z,27.87
2019-04-04T22:57:37.067Z,27.90
2019-04-04T22:59:43.926Z,21.90
2019-04-04T23:01:50.768Z,25.57
2019-04-04T23:03:57.834Z,36.27
2019-04-04T23:06:04.931Z,26.67
2019-04-04T23:08:12.143Z,28.43
2019-04-04T23:10:18.736Z,29.70
2019-04-04T23:12:26.044Z,26.23
2019-04-04T23:14:32.673Z,26.53
2019-04-04T23:16:39.700Z,24.97
2019-04-04T23:18:46.765Z,26.23
2019-04-04T23:21:03.227Z,31.37
2019-04-04T23:23:10.018Z,34.60
2019-04-04T23:25:17.908Z,24.60
2019-04-04T23:27:32.307Z,23.53
2019-04-04T23:29:39.106Z,33.57
2019-04-04T23:31:46.467Z,28.63
2019-04-04T23:33:53.654Z,25.73
2019-04-04T23:36:00.912Z,25.23
2019-04-04T23:38:08.067Z,26.43
2019-04-04T23:40:15.000Z,23.23
2019-04-04T23:42:22.037Z,25.97
2019-04-04T23:44:28.877Z,26.60
2019-04-04T23:46:35.745Z,24.90
2019-04-04T23:48:42.219Z,25.93
2019-04-04T23:50:49.370Z,33.97
2019-04-04T23:52:55.970Z,28.17
2019-04-04T23:55:02.796Z,24.10
2019-04-04T23:57:09.490Z,31.50
2019-04-04T23:59:16.206Z,25.57
